createdAt,value
2018-03-26T00:00:11.524Z,52.30
2018-03-26T00:01:11.520Z,53.10
2018-03-26T00:02:11.518Z,52.70
2018-03-26T00:03:11.508Z,52.00
2018-03-26T00:04:11.503Z,54.70
2018-03-26T00:05:11.498Z,54.00
2018-03-26T00:06:11.492Z,54.50
2018-03-26T00:07:11.487Z,54.70
2018-03-26T00:08:11.481Z,55.00
2018-03-26T00:09:11.477Z,54.60
2018-03-26T00:10:11.472Z,54.80
2018-03-26T00:11:11.464Z,54.30
2018-03-26T00:12:11.460Z,53.60
2018-03-26T00:13:11.455Z,52.30
2018-03-26T00:14:11.450Z,53.30
2018-03-26T00:15:11.443Z,53.40
2018-03-26T00:16:11.439Z,55.70
2018-03-26T00:17:11.433Z,53.50
2018-03-26T00:18:11.428Z,54.70
2018-03-26T00:19:11.422Z,56.10
2018-03-26T00:20:11.417Z,53.90
2018-03-26T00:21:11.411Z,55.90
2018-03-26T00:22:11.408Z,54.20
2018-03-26T00:23:11.401Z,54.00
2018-03-26T00:24:11.394Z,54.40
2018-03-26T00:25:11.389Z,55.70
2018-03-26T00:26:11.384Z,54.20
2018-03-26T00:27:11.400Z,56.10
2018-03-26T00:28:11.371Z,54.70
2018-03-26T00:29:11.367Z,54.00
2018-03-26T00:30:11.362Z,55.50
2018-03-26T00:31:11.356Z,55.80
2018-03-26T00:32:11.377Z,55.00
2018-03-26T00:33:11.344Z,54.80
2018-03-26T00:34:11.340Z,55.30
2018-03-26T00:35:11.336Z,53.40
2018-03-26T00:36:11.327Z,55.40
2018-03-26T00:37:11.323Z,55.20
2018-03-26T00:38:11.316Z,55.50
2018-03-26T00:39:11.310Z,54.80
2018-03-26T00:40:11.309Z,54.90
2018-03-26T00:41:11.300Z,54.20
2018-03-26T00:42:11.293Z,55.10
2018-03-26T00:43:11.287Z,54.40
2018-03-26T00:44:11.281Z,53.40
2018-03-26T00:45:11.282Z,54.70
2018-03-26T00:46:11.272Z,54.60
2018-03-26T00:47:11.265Z,53.70
2018-03-26T00:48:11.290Z,53.00
2018-03-26T00:49:11.404Z,55.00
2018-03-26T00:50:11.250Z,53.60
2018-03-26T00:51:11.246Z,53.00
2018-03-26T00:52:11.236Z,53.70
2018-03-26T00:53:11.231Z,52.90
2018-03-26T00:54:11.225Z,53.10
2018-03-26T00:55:11.219Z,52.50
2018-03-26T00:56:11.215Z,50.70
2018-03-26T00:57:11.207Z,50.60
2018-03-26T00:58:11.203Z,51.20
2018-03-26T00:59:11.196Z,51.90
2018-03-26T01:00:11.210Z,50.30
2018-03-26T01:01:11.184Z,52.30
2018-03-26T01:02:11.177Z,50.60
2018-03-26T01:03:11.172Z,50.80
2018-03-26T01:04:11.191Z,51.10
2018-03-26T01:05:11.164Z,51.40
2018-03-26T01:06:11.154Z,51.60
2018-03-26T01:07:11.148Z,50.20
2018-03-26T01:08:11.141Z,50.40
2018-03-26T01:09:11.136Z,50.60
2018-03-26T01:10:11.130Z,50.10
2018-03-26T01:11:11.130Z,49.30
2018-03-26T01:12:11.140Z,50.80
2018-03-26T01:13:11.113Z,52.30
2018-03-26T01:14:11.108Z,50.60
2018-03-26T01:15:11.100Z,50.10
2018-03-26T01:16:11.094Z,50.20
2018-03-26T01:17:11.088Z,51.60
2018-03-26T01:18:11.088Z,50.50
2018-03-26T01:19:11.075Z,48.90
2018-03-26T01:20:11.082Z,50.50
2018-03-26T01:21:11.064Z,49.60
2018-03-26T01:22:11.058Z,51.40
2018-03-26T01:23:11.055Z,51.10
2018-03-26T01:24:11.046Z,49.50
2018-03-26T01:25:11.039Z,49.80
2018-03-26T01:26:11.034Z,51.30
2018-03-26T01:27:11.027Z,50.70
2018-03-26T01:28:11.036Z,49.80
2018-03-26T01:29:11.015Z,50.30
2018-03-26T01:30:11.015Z,51.00
2018-03-26T01:31:11.003Z,50.80
2018-03-26T01:32:11.013Z,50.40
2018-03-26T01:33:11.009Z,52.10
2018-03-26T01:34:10.984Z,49.50
2018-03-26T01:35:10.980Z,52.00
2018-03-26T01:36:10.981Z,49.40
2018-03-26T01:37:10.966Z,49.60
2018-03-26T01:38:10.961Z,49.40
2018-03-26T01:39:10.954Z,49.30
2018-03-26T01:40:10.953Z,49.60
2018-03-26T01:41:10.954Z,49.20
2018-03-26T01:42:10.936Z,50.30
2018-03-26T01:43:10.929Z,48.90
2018-03-26T01:44:10.937Z,49.80
2018-03-26T01:45:10.917Z,50.60
2018-03-26T01:46:10.912Z,48.90
2018-03-26T01:47:10.904Z,49.00
2018-03-26T01:48:10.899Z,48.00
2018-03-26T01:49:10.892Z,48.70
2018-03-26T01:50:10.887Z,48.70
2018-03-26T01:51:10.879Z,49.40
2018-03-26T01:52:10.882Z,49.60
2018-03-26T01:53:10.869Z,48.00
2018-03-26T01:54:10.862Z,47.60
2018-03-26T01:55:10.855Z,48.10
2018-03-26T01:56:10.851Z,48.10
2018-03-26T01:57:10.844Z,48.10
2018-03-26T01:58:10.839Z,47.70
2018-03-26T01:59:10.830Z,47.50
2018-03-26T02:00:10.860Z,48.50
2018-03-26T02:01:10.819Z,48.20
2018-03-26T02:02:10.813Z,45.80
2018-03-26T02:03:10.809Z,45.70
2018-03-26T02:04:10.801Z,48.30
2018-03-26T02:05:10.795Z,47.40
2018-03-26T02:06:10.788Z,48.20
2018-03-26T02:07:10.782Z,47.70
2018-03-26T02:08:10.787Z,47.20
2018-03-26T02:09:10.769Z,47.20
2018-03-26T02:10:10.764Z,46.30
2018-03-26T02:11:10.757Z,46.40
2018-03-26T02:12:10.751Z,45.20
2018-03-26T02:13:10.745Z,44.90
2018-03-26T02:14:10.739Z,46.00
2018-03-26T02:15:10.731Z,46.10
2018-03-26T02:16:10.840Z,43.80
2018-03-26T02:17:10.720Z,46.90
2018-03-26T02:18:10.714Z,45.80
2018-03-26T02:19:10.857Z,45.90
2018-03-26T02:20:10.701Z,44.90
2018-03-26T02:21:10.695Z,45.70
2018-03-26T02:22:10.690Z,45.90
2018-03-26T02:23:10.681Z,45.00
2018-03-26T02:24:10.751Z,44.20
2018-03-26T02:25:10.670Z,44.50
2018-03-26T02:26:10.664Z,45.00
2018-03-26T02:27:10.657Z,44.30
2018-03-26T02:28:10.651Z,46.20
2018-03-26T02:29:10.645Z,43.70
2018-03-26T02:30:10.646Z,44.60
2018-03-26T02:31:10.635Z,45.00
2018-03-26T02:32:10.840Z,44.50
2018-03-26T02:33:10.620Z,44.90
2018-03-26T02:34:10.613Z,43.40
2018-03-26T02:35:10.607Z,45.20
2018-03-26T02:36:10.606Z,44.60
2018-03-26T02:37:10.595Z,44.80
2018-03-26T02:38:10.589Z,44.50
2018-03-26T02:39:10.580Z,44.50
2018-03-26T02:40:10.593Z,45.40
2018-03-26T02:41:10.573Z,45.50
2018-03-26T02:42:10.562Z,44.10
2018-03-26T02:43:10.564Z,45.60
2018-03-26T02:44:10.549Z,45.00
2018-03-26T02:45:10.544Z,42.70
2018-03-26T02:46:10.537Z,44.60
2018-03-26T02:47:10.531Z,44.50
2018-03-26T02:48:10.793Z,44.40
2018-03-26T02:49:10.518Z,44.50
2018-03-26T02:50:10.512Z,45.70
2018-03-26T02:51:10.505Z,44.30
2018-03-26T02:52:10.502Z,45.90
2018-03-26T02:53:10.491Z,45.00
2018-03-26T02:54:10.485Z,45.90
2018-03-26T02:55:10.479Z,45.20
2018-03-26T02:56:10.490Z,44.60
2018-03-26T02:57:10.466Z,46.60
2018-03-26T02:58:10.460Z,46.00
2018-03-26T02:59:10.455Z,46.20
2018-03-26T03:00:10.449Z,48.30
2018-03-26T03:01:10.440Z,48.30
2018-03-26T03:02:10.435Z,49.90
2018-03-26T03:03:10.427Z,48.80
2018-03-26T03:04:10.800Z,48.40
2018-03-26T03:05:10.416Z,49.80
2018-03-26T03:06:10.407Z,47.80
2018-03-26T03:07:10.401Z,48.90
2018-03-26T03:08:10.395Z,49.20
2018-03-26T03:09:10.388Z,51.00
2018-03-26T03:10:10.381Z,49.70
2018-03-26T03:11:10.373Z,49.60
2018-03-26T03:12:10.394Z,49.00
2018-03-26T03:13:10.361Z,49.80
2018-03-26T03:14:10.355Z,49.30
2018-03-26T03:15:10.353Z,48.40
2018-03-26T03:16:10.341Z,50.80
2018-03-26T03:17:10.335Z,50.10
2018-03-26T03:18:10.329Z,49.80
2018-03-26T03:19:10.321Z,48.60
2018-03-26T03:20:10.550Z,48.30
2018-03-26T03:21:10.308Z,52.20
2018-03-26T03:22:10.302Z,49.30
2018-03-26T03:23:10.295Z,49.40
2018-03-26T03:24:10.288Z,49.50
2018-03-26T03:25:10.283Z,49.80
2018-03-26T03:26:10.277Z,49.50
2018-03-26T03:27:10.274Z,51.20
2018-03-26T03:28:10.282Z,51.80
2018-03-26T03:29:10.257Z,50.90
2018-03-26T03:30:10.251Z,48.70
2018-03-26T03:31:10.250Z,48.30
2018-03-26T03:32:10.295Z,49.30
2018-03-26T03:33:10.230Z,51.30
2018-03-26T03:34:10.225Z,50.90
2018-03-26T03:35:10.216Z,52.30
2018-03-26T03:36:10.473Z,51.10
2018-03-26T03:37:10.204Z,49.30
2018-03-26T03:38:10.197Z,50.80
2018-03-26T03:39:10.191Z,50.90
2018-03-26T03:40:10.184Z,52.10
2018-03-26T03:41:10.177Z,48.90
2018-03-26T03:42:10.171Z,49.80
2018-03-26T03:43:10.164Z,49.20
2018-03-26T03:44:10.181Z,49.50
2018-03-26T03:45:10.151Z,49.30
2018-03-26T03:46:10.151Z,49.40
2018-03-26T03:47:10.153Z,48.20
2018-03-26T03:48:10.130Z,51.20
2018-03-26T03:49:12.526Z,53.30
2018-03-26T03:50:10.117Z,52.20
2018-03-26T03:51:10.110Z,53.80
2018-03-26T03:52:10.473Z,52.60
2018-03-26T03:53:10.097Z,52.30
2018-03-26T03:54:10.097Z,51.50
2018-03-26T03:55:10.097Z,50.90
2018-03-26T03:56:10.077Z,53.40
2018-03-26T03:57:10.069Z,53.20
2018-03-26T03:58:10.063Z,52.60
2018-03-26T03:59:10.055Z,53.20
2018-03-26T04:00:10.094Z,52.70
2018-03-26T04:01:10.042Z,52.00
2018-03-26T04:02:10.036Z,52.60
2018-03-26T04:03:10.038Z,52.30
2018-03-26T04:04:10.021Z,52.20
2018-03-26T04:05:10.015Z,52.10
2018-03-26T04:06:10.009Z,52.70
2018-03-26T04:07:10.000Z,52.70
2018-03-26T04:08:10.465Z,51.80
2018-03-26T04:09:09.989Z,51.70
2018-03-26T04:10:09.982Z,50.70
2018-03-26T04:11:09.974Z,52.90
2018-03-26T04:12:09.968Z,52.80
2018-03-26T04:13:09.961Z,50.80
2018-03-26T04:14:09.954Z,50.80
2018-03-26T04:15:09.946Z,51.30
2018-03-26T04:16:09.953Z,50.60
2018-03-26T04:17:09.932Z,51.30
2018-03-26T04:18:09.926Z,50.40
2018-03-26T04:19:09.918Z,51.30
2018-03-26T04:20:09.922Z,49.30
2018-03-26T04:21:09.905Z,49.30
2018-03-26T04:22:09.898Z,48.90
2018-03-26T04:23:09.890Z,50.70
2018-03-26T04:24:10.124Z,47.20
2018-03-26T04:25:09.877Z,47.80
2018-03-26T04:26:09.873Z,47.60
2018-03-26T04:27:09.863Z,47.00
2018-03-26T04:28:09.858Z,46.00
2018-03-26T04:29:09.855Z,45.90
2018-03-26T04:30:09.851Z,46.50
2018-03-26T04:31:09.839Z,47.20
2018-03-26T04:32:10.122Z,44.90
2018-03-26T04:33:09.825Z,44.90
2018-03-26T04:34:09.818Z,42.90
2018-03-26T04:35:09.809Z,43.90
2018-03-26T04:36:09.803Z,45.20
2018-03-26T04:37:09.797Z,42.80
2018-03-26T04:38:09.791Z,43.50
2018-03-26T04:39:09.781Z,43.20
2018-03-26T04:40:09.786Z,43.50
2018-03-26T04:41:09.769Z,45.40
2018-03-26T04:42:09.763Z,44.00
2018-03-26T04:43:09.755Z,45.20
2018-03-26T04:44:09.747Z,44.10
2018-03-26T04:45:09.742Z,42.60
2018-03-26T04:46:09.735Z,43.70
2018-03-26T04:47:09.728Z,44.30
2018-03-26T04:48:09.721Z,43.70
2018-03-26T04:49:09.715Z,44.50
2018-03-26T04:50:09.709Z,44.00
2018-03-26T04:51:09.700Z,42.10
2018-03-26T04:52:09.693Z,42.70
2018-03-26T04:53:09.687Z,41.80
2018-03-26T04:54:09.685Z,40.80
2018-03-26T04:55:09.923Z,41.70
2018-03-26T04:56:09.666Z,41.10
2018-03-26T04:57:09.659Z,40.00
2018-03-26T04:58:09.653Z,40.50
2018-03-26T04:59:09.645Z,40.50
2018-03-26T05:00:09.642Z,40.20
2018-03-26T05:01:09.632Z,40.40
2018-03-26T05:02:09.629Z,38.50
2018-03-26T05:03:09.617Z,38.80
2018-03-26T05:04:09.612Z,38.40
2018-03-26T05:05:09.605Z,39.60
2018-03-26T05:06:09.598Z,37.90
2018-03-26T05:07:09.590Z,38.60
2018-03-26T05:08:09.588Z,39.00
2018-03-26T05:09:09.578Z,40.10
2018-03-26T05:10:09.571Z,37.70
2018-03-26T05:11:09.564Z,38.10
2018-03-26T05:12:09.567Z,38.70
2018-03-26T05:13:09.555Z,38.00
2018-03-26T05:14:09.550Z,37.70
2018-03-26T05:15:09.536Z,38.50
2018-03-26T05:16:09.535Z,37.50
2018-03-26T05:17:09.523Z,37.70
2018-03-26T05:18:09.517Z,38.20
2018-03-26T05:19:09.617Z,37.30
2018-03-26T05:20:09.503Z,38.60
2018-03-26T05:21:09.496Z,38.00
2018-03-26T05:22:09.490Z,35.80
2018-03-26T05:23:09.482Z,36.40
2018-03-26T05:24:09.476Z,35.90
2018-03-26T05:25:09.468Z,36.10
2018-03-26T05:26:09.462Z,36.90
2018-03-26T05:27:09.454Z,35.50
2018-03-26T05:28:09.448Z,35.80
2018-03-26T05:29:09.458Z,36.00
2018-03-26T05:30:09.437Z,33.50
2018-03-26T05:31:09.437Z,35.00
2018-03-26T05:32:09.423Z,35.40
2018-03-26T05:33:09.414Z,34.60
2018-03-26T05:34:09.410Z,32.90
2018-03-26T05:35:09.400Z,32.70
2018-03-26T05:36:09.392Z,33.20
2018-03-26T05:37:09.435Z,31.80
2018-03-26T05:38:09.379Z,34.50
2018-03-26T05:39:09.371Z,32.40
2018-03-26T05:40:09.365Z,33.30
2018-03-26T05:41:09.360Z,33.40
2018-03-26T05:42:09.353Z,31.80
2018-03-26T05:43:51.753Z,31.70
2018-03-26T06:04:48.327Z,30.90
2018-03-26T06:13:44.909Z,25.30
2018-03-26T06:15:27.312Z,24.40
2018-03-26T06:16:27.314Z,25.70
2018-03-26T06:21:36.255Z,25.70
2018-03-26T06:23:23.659Z,26.30
2018-03-26T06:24:23.650Z,26.90
2018-03-26T06:28:56.779Z,27.70
2018-03-26T06:31:04.227Z,26.60
2018-03-26T06:36:13.170Z,27.70
2018-03-26T06:38:45.663Z,27.50
2018-03-26T06:39:45.656Z,27.40
2018-03-26T06:40:45.649Z,27.20
2018-03-26T06:42:45.635Z,25.90
2018-03-26T06:49:27.080Z,25.20
2018-03-26T06:51:09.482Z,23.90
2018-03-26T06:53:02.105Z,24.60
2018-03-26T07:01:31.628Z,24.30
2018-03-26T07:03:19.040Z,25.60
2018-03-26T07:05:41.514Z,27.00
2018-03-26T07:06:41.554Z,25.60
2018-03-26T07:07:41.498Z,25.80
2018-03-26T07:09:43.940Z,26.40
2018-03-26T07:10:43.934Z,27.10
2018-03-26T07:11:43.927Z,27.30
2018-03-26T07:12:43.922Z,27.20
2018-03-26T07:13:43.914Z,26.60
2018-03-26T07:14:43.907Z,26.10
2018-03-26T07:15:43.900Z,26.50
2018-03-26T07:16:43.895Z,26.90
2018-03-26T07:17:43.888Z,27.00
2018-03-26T07:18:43.882Z,27.20
2018-03-26T07:19:43.876Z,29.20
2018-03-26T07:20:43.870Z,27.60
2018-03-26T07:21:43.895Z,28.30
2018-03-26T07:22:43.857Z,27.80
2018-03-26T07:23:43.877Z,28.10
2018-03-26T07:24:43.849Z,26.90
2018-03-26T07:25:43.837Z,27.90
2018-03-26T07:26:43.836Z,26.80
2018-03-26T07:27:43.832Z,27.60
2018-03-26T07:28:43.822Z,27.30
2018-03-26T07:29:43.822Z,27.10
2018-03-26T07:30:43.819Z,26.90
2018-03-26T07:31:43.808Z,25.50
2018-03-26T07:32:43.804Z,30.40
2018-03-26T07:33:43.798Z,29.30
2018-03-26T07:34:43.796Z,28.40
2018-03-26T07:35:43.791Z,28.70
2018-03-26T07:36:43.788Z,27.60
2018-03-26T07:37:43.783Z,28.10
2018-03-26T07:38:43.780Z,25.90
2018-03-26T07:39:46.400Z,26.10
2018-03-26T07:43:54.547Z,24.80
2018-03-26T07:44:54.558Z,25.90
2018-03-26T07:45:54.541Z,26.00
2018-03-26T07:49:20.242Z,25.40
2018-03-26T07:51:02.638Z,25.00
2018-03-26T07:52:45.048Z,23.70
2018-03-26T07:53:45.052Z,25.00
2018-03-26T07:54:48.270Z,24.40
2018-03-26T07:55:45.039Z,23.40
2018-03-26T07:56:45.038Z,22.10
2018-03-26T07:59:54.948Z,22.60
2018-03-26T08:00:54.952Z,22.20
2018-03-26T08:03:07.947Z,21.80
2018-03-26T08:04:07.946Z,21.20
2018-03-26T08:05:07.944Z,21.90
2018-03-26T08:08:33.637Z,23.20
2018-03-26T08:14:02.643Z,21.80
2018-03-26T08:15:02.645Z,22.40
2018-03-26T08:16:02.639Z,22.70
2018-03-26T08:17:02.743Z,22.20
2018-03-26T08:18:02.638Z,23.00
2018-03-26T08:19:02.632Z,22.50
2018-03-26T08:20:02.632Z,23.30
2018-03-26T08:21:02.631Z,22.90
2018-03-26T08:22:02.625Z,22.00
2018-03-26T08:23:02.624Z,22.70
2018-03-26T08:24:02.616Z,20.00
2018-03-26T08:25:02.613Z,18.40
2018-03-26T08:26:02.607Z,18.50
2018-03-26T08:27:02.605Z,18.80
2018-03-26T08:28:02.619Z,19.70
2018-03-26T08:29:02.597Z,19.90
2018-03-26T08:30:02.594Z,21.00
2018-03-26T08:31:02.603Z,20.70
2018-03-26T08:32:02.586Z,20.60
2018-03-26T08:33:02.582Z,21.60
2018-03-26T08:34:02.576Z,20.30
2018-03-26T08:35:02.573Z,21.10
2018-03-26T08:36:02.569Z,20.40
2018-03-26T08:37:02.564Z,21.50
2018-03-26T08:38:02.659Z,20.70
2018-03-26T08:39:02.558Z,21.60
2018-03-26T08:40:02.550Z,20.80
2018-03-26T08:41:02.545Z,20.90
2018-03-26T08:42:02.541Z,21.80
2018-03-26T08:43:02.536Z,22.60
2018-03-26T08:44:02.534Z,22.20
2018-03-26T08:45:02.528Z,22.30
2018-03-26T08:46:02.521Z,22.80
2018-03-26T08:47:02.521Z,23.00
2018-03-26T08:48:02.513Z,22.30
2018-03-26T08:49:02.516Z,22.20
2018-03-26T08:50:02.619Z,22.10
2018-03-26T08:51:02.495Z,22.30
2018-03-26T08:52:02.490Z,21.80
2018-03-26T08:53:02.487Z,22.50
2018-03-26T08:54:02.480Z,21.50
2018-03-26T08:55:02.480Z,21.60
2018-03-26T08:56:02.484Z,20.80
2018-03-26T08:57:02.464Z,19.10
2018-03-26T08:58:02.457Z,18.40
2018-03-26T08:59:02.453Z,17.80
2018-03-26T09:00:02.457Z,17.60
2018-03-26T09:01:02.449Z,17.00
2018-03-26T09:02:02.436Z,17.20
2018-03-26T09:03:02.430Z,17.00
2018-03-26T09:04:02.430Z,17.50
2018-03-26T09:05:02.437Z,17.20
2018-03-26T09:06:02.413Z,16.90
2018-03-26T09:07:02.408Z,16.60
2018-03-26T09:08:02.404Z,16.30
2018-03-26T09:09:02.396Z,15.30
2018-03-26T09:10:02.392Z,16.10
2018-03-26T09:11:02.386Z,15.90
2018-03-26T09:12:02.394Z,15.80
2018-03-26T09:13:02.376Z,15.60
2018-03-26T09:14:02.475Z,15.80
2018-03-26T09:15:02.364Z,15.70
2018-03-26T09:16:02.359Z,15.80
2018-03-26T09:17:02.354Z,16.20
2018-03-26T09:18:02.349Z,16.40
2018-03-26T09:19:02.341Z,15.60
2018-03-26T09:20:02.587Z,15.60
2018-03-26T09:21:02.333Z,15.30
2018-03-26T09:22:02.326Z,15.70
2018-03-26T09:23:02.319Z,15.50
2018-03-26T09:24:02.320Z,14.90
2018-03-26T09:25:02.308Z,14.90
2018-03-26T09:26:02.335Z,15.40
2018-03-26T09:27:02.298Z,14.40
2018-03-26T09:28:02.292Z,14.80
2018-03-26T09:29:02.287Z,14.80
2018-03-26T09:30:02.299Z,12.50
2018-03-26T09:31:02.278Z,12.00
2018-03-26T09:32:02.272Z,12.30
2018-03-26T09:33:02.265Z,12.80
2018-03-26T09:34:02.259Z,12.70
2018-03-26T09:35:02.254Z,13.00
2018-03-26T09:36:02.249Z,12.50
2018-03-26T09:37:02.244Z,12.40
2018-03-26T09:38:02.237Z,11.90
2018-03-26T09:39:02.232Z,11.80
2018-03-26T09:40:02.227Z,12.50
2018-03-26T09:41:02.222Z,12.70
2018-03-26T09:42:02.216Z,13.20
2018-03-26T09:43:02.210Z,13.70
2018-03-26T09:44:02.204Z,13.20
2018-03-26T09:45:02.206Z,12.80
2018-03-26T09:46:02.195Z,12.80
2018-03-26T09:47:02.213Z,13.10
2018-03-26T09:48:02.185Z,12.70
2018-03-26T09:49:02.190Z,12.10
2018-03-26T09:50:02.524Z,12.90
2018-03-26T09:51:02.167Z,13.00
2018-03-26T09:52:02.166Z,12.30
2018-03-26T09:53:02.157Z,12.10
2018-03-26T09:54:02.155Z,12.80
2018-03-26T09:55:02.147Z,12.60
2018-03-26T09:56:02.481Z,13.10
2018-03-26T09:57:02.136Z,13.10
2018-03-26T09:58:02.137Z,12.50
2018-03-26T09:59:02.128Z,12.60
2018-03-26T10:00:02.121Z,12.00
2018-03-26T10:01:02.128Z,11.50
2018-03-26T10:02:02.192Z,12.30
2018-03-26T10:03:02.104Z,11.90
2018-03-26T10:04:02.099Z,11.70
2018-03-26T10:05:02.096Z,11.90
2018-03-26T10:06:02.090Z,12.00
2018-03-26T10:07:02.085Z,12.70
2018-03-26T10:08:02.079Z,13.00
2018-03-26T10:09:02.076Z,12.70
2018-03-26T10:10:02.069Z,12.50
2018-03-26T10:11:02.064Z,12.90
2018-03-26T10:12:02.059Z,10.60
2018-03-26T10:13:02.054Z,10.40
2018-03-26T10:14:02.049Z,10.40
2018-03-26T10:15:02.044Z,10.30
2018-03-26T10:16:02.040Z,10.80
2018-03-26T10:17:02.035Z,10.70
2018-03-26T10:18:02.029Z,10.40
2018-03-26T10:19:02.025Z,10.70
2018-03-26T10:20:02.020Z,11.00
2018-03-26T10:21:02.015Z,10.10
2018-03-26T10:22:02.012Z,9.80
2018-03-26T10:23:02.007Z,10.50
2018-03-26T10:24:02.004Z,10.30
2018-03-26T10:25:01.995Z,10.00
2018-03-26T10:26:01.991Z,10.70
2018-03-26T10:27:01.988Z,9.80
2018-03-26T10:28:01.981Z,9.60
2018-03-26T10:29:01.977Z,9.50
2018-03-26T10:30:01.985Z,9.90
2018-03-26T10:31:01.969Z,9.50
2018-03-26T10:32:02.212Z,8.60
2018-03-26T10:33:01.964Z,9.70
2018-03-26T10:34:01.952Z,9.30
2018-03-26T10:35:01.948Z,9.50
2018-03-26T10:36:01.944Z,9.70
2018-03-26T10:37:01.940Z,10.00
2018-03-26T10:38:02.234Z,10.60
2018-03-26T10:39:01.929Z,10.50
2018-03-26T10:40:01.925Z,10.40
2018-03-26T10:41:01.926Z,9.30
2018-03-26T10:42:01.919Z,9.40
2018-03-26T10:43:01.912Z,9.10
2018-03-26T10:44:02.157Z,9.20
2018-03-26T10:45:01.904Z,9.30
2018-03-26T10:46:01.902Z,10.00
2018-03-26T10:47:01.893Z,9.30
2018-03-26T10:48:01.889Z,10.00
2018-03-26T10:49:01.886Z,9.50
2018-03-26T10:50:02.181Z,9.60
2018-03-26T10:51:01.891Z,8.90
2018-03-26T10:52:01.882Z,9.60
2018-03-26T10:53:01.869Z,9.70
2018-03-26T10:54:01.863Z,9.30
2018-03-26T10:55:01.859Z,9.10
2018-03-26T10:56:01.855Z,8.80
2018-03-26T10:57:01.852Z,7.80
2018-03-26T10:58:01.845Z,7.30
2018-03-26T10:59:01.842Z,7.40
2018-03-26T11:00:01.838Z,7.60
2018-03-26T11:01:01.834Z,8.90
2018-03-26T11:02:01.979Z,8.90
2018-03-26T11:03:01.825Z,9.30
2018-03-26T11:04:01.825Z,9.10
2018-03-26T11:05:01.817Z,9.50
2018-03-26T11:06:01.812Z,8.80
2018-03-26T11:07:01.807Z,8.00
2018-03-26T11:08:01.804Z,9.40
2018-03-26T11:09:01.805Z,8.40
2018-03-26T11:10:01.795Z,8.50
2018-03-26T11:11:01.799Z,8.90
2018-03-26T11:12:01.789Z,8.80
2018-03-26T11:13:01.801Z,9.10
2018-03-26T11:14:01.778Z,8.70
2018-03-26T11:15:01.779Z,8.70
2018-03-26T11:16:01.774Z,8.30
2018-03-26T11:17:01.768Z,8.70
2018-03-26T11:18:01.798Z,8.70
2018-03-26T11:19:01.759Z,9.30
2018-03-26T11:20:01.756Z,8.80
2018-03-26T11:21:01.757Z,9.30
2018-03-26T11:22:01.747Z,8.90
2018-03-26T11:23:01.745Z,8.30
2018-03-26T11:24:01.741Z,8.50
2018-03-26T11:25:01.737Z,8.80
2018-03-26T11:26:01.733Z,8.60
2018-03-26T11:27:01.730Z,8.20
2018-03-26T11:28:01.741Z,8.00
2018-03-26T11:29:01.722Z,8.60
2018-03-26T11:30:01.719Z,9.20
2018-03-26T11:31:01.716Z,8.50
2018-03-26T11:32:01.713Z,8.70
2018-03-26T11:33:01.709Z,8.80
2018-03-26T11:34:01.706Z,9.10
2018-03-26T11:35:01.702Z,9.30
2018-03-26T11:36:01.699Z,8.40
2018-03-26T11:37:01.697Z,8.90
2018-03-26T11:38:01.792Z,8.80
2018-03-26T11:39:01.690Z,8.10
2018-03-26T11:40:01.692Z,9.10
2018-03-26T11:41:01.683Z,8.10
2018-03-26T11:42:01.680Z,7.70
2018-03-26T11:43:01.691Z,7.70
2018-03-26T11:44:01.675Z,7.40
2018-03-26T11:45:01.672Z,7.50
2018-03-26T11:46:01.670Z,7.80
2018-03-26T11:47:01.666Z,8.10
2018-03-26T11:48:01.666Z,7.90
2018-03-26T11:49:01.668Z,8.00
2018-03-26T11:50:01.668Z,7.40
2018-03-26T11:51:01.669Z,8.00
2018-03-26T11:52:01.657Z,8.30
2018-03-26T11:53:01.649Z,7.60
2018-03-26T11:54:01.645Z,7.20
2018-03-26T11:55:01.643Z,8.10
2018-03-26T11:56:01.890Z,8.30
2018-03-26T11:57:01.637Z,8.00
2018-03-26T11:58:01.634Z,8.00
2018-03-26T11:59:01.632Z,8.40
2018-03-26T12:00:01.630Z,8.70
2018-03-26T12:01:01.627Z,8.20
2018-03-26T12:02:01.923Z,8.20
2018-03-26T12:03:01.623Z,8.10
2018-03-26T12:04:01.621Z,7.80
2018-03-26T12:05:01.622Z,10.20
2018-03-26T12:06:01.623Z,8.70
2018-03-26T12:07:01.624Z,8.60
2018-03-26T12:08:01.858Z,8.20
2018-03-26T12:09:01.606Z,7.70
2018-03-26T12:10:01.603Z,8.10
2018-03-26T12:11:01.601Z,7.60
2018-03-26T12:12:01.600Z,7.40
2018-03-26T12:13:01.609Z,7.10
2018-03-26T12:14:01.901Z,7.10
2018-03-26T12:15:01.593Z,7.30
2018-03-26T12:16:01.590Z,7.10
2018-03-26T12:17:01.588Z,8.10
2018-03-26T12:18:01.586Z,7.20
2018-03-26T12:19:01.588Z,7.50
2018-03-26T12:20:01.583Z,7.60
2018-03-26T12:21:01.615Z,7.60
2018-03-26T12:22:01.578Z,7.80
2018-03-26T12:23:01.576Z,7.80
2018-03-26T12:24:02.790Z,7.70
2018-03-26T12:25:01.573Z,7.60
2018-03-26T12:26:01.572Z,7.30
2018-03-26T12:27:01.574Z,7.60
2018-03-26T12:28:01.571Z,7.80
2018-03-26T12:29:01.568Z,7.70
2018-03-26T12:30:01.568Z,7.60
2018-03-26T12:31:01.570Z,7.30
2018-03-26T12:32:01.567Z,7.70
2018-03-26T12:33:02.190Z,7.70
2018-03-26T12:34:02.989Z,7.60
2018-03-26T12:35:01.568Z,7.00
2018-03-26T12:36:01.570Z,6.90
2018-03-26T12:37:01.571Z,6.80
2018-03-26T12:38:01.592Z,7.70
2018-03-26T12:39:01.573Z,7.50
2018-03-26T12:40:01.576Z,7.60
2018-03-26T12:41:01.579Z,7.10
2018-03-26T12:42:01.580Z,7.30
2018-03-26T12:43:01.585Z,7.30
2018-03-26T12:44:01.586Z,7.20
2018-03-26T12:45:01.589Z,7.10
2018-03-26T12:46:01.591Z,6.70
2018-03-26T12:47:01.595Z,6.90
2018-03-26T12:48:01.606Z,6.80
2018-03-26T12:49:01.602Z,7.00
2018-03-26T12:50:01.608Z,6.90
2018-03-26T12:51:01.718Z,6.80
2018-03-26T12:52:01.615Z,6.70
2018-03-26T12:53:01.622Z,4.90
2018-03-26T12:54:01.625Z,5.10
2018-03-26T12:55:01.629Z,5.20
2018-03-26T12:56:01.636Z,4.90
2018-03-26T12:57:01.641Z,5.60
2018-03-26T12:58:01.645Z,5.70
2018-03-26T12:59:01.651Z,6.20
2018-03-26T13:00:01.684Z,6.00
2018-03-26T13:01:01.664Z,6.30
2018-03-26T13:02:01.683Z,6.00
2018-03-26T13:03:01.683Z,5.40
2018-03-26T13:04:01.690Z,5.20
2018-03-26T13:05:01.690Z,5.10
2018-03-26T13:06:01.692Z,4.70
2018-03-26T13:07:03.162Z,4.90
2018-03-26T13:08:01.704Z,5.20
2018-03-26T13:09:01.711Z,5.60
2018-03-26T13:10:01.716Z,5.30
2018-03-26T13:11:01.733Z,5.40
2018-03-26T13:12:01.729Z,5.40
2018-03-26T13:13:02.086Z,4.90
2018-03-26T13:14:01.761Z,5.00
2018-03-26T13:15:01.761Z,4.00
2018-03-26T13:16:01.760Z,4.70
2018-03-26T13:17:01.762Z,4.90
2018-03-26T13:18:01.773Z,5.10
2018-03-26T13:19:02.024Z,5.30
2018-03-26T13:20:01.781Z,5.50
2018-03-26T13:21:01.788Z,5.70
2018-03-26T13:22:01.797Z,6.60
2018-03-26T13:23:01.804Z,6.20
2018-03-26T13:24:01.811Z,6.00
2018-03-26T13:25:01.818Z,6.50
2018-03-26T13:26:01.822Z,6.50
2018-03-26T13:27:01.833Z,6.70
2018-03-26T13:28:01.839Z,7.00
2018-03-26T13:29:01.902Z,7.00
2018-03-26T13:30:01.851Z,6.40
2018-03-26T13:31:01.859Z,6.00
2018-03-26T13:32:01.877Z,6.50
2018-03-26T13:33:01.876Z,5.20
2018-03-26T13:34:01.878Z,4.60
2018-03-26T13:35:01.887Z,4.70
2018-03-26T13:36:01.897Z,4.70
2018-03-26T13:37:01.900Z,4.80
2018-03-26T13:38:01.907Z,5.80
2018-03-26T13:39:01.914Z,6.00
2018-03-26T13:40:01.921Z,5.80
2018-03-26T13:41:01.928Z,6.20
2018-03-26T13:42:01.939Z,6.30
2018-03-26T13:43:01.943Z,6.30
2018-03-26T13:44:01.952Z,6.20
2018-03-26T13:45:01.958Z,6.70
2018-03-26T13:46:01.980Z,6.10
2018-03-26T13:47:01.973Z,6.10
2018-03-26T13:48:01.983Z,6.60
2018-03-26T13:49:01.990Z,6.50
2018-03-26T13:50:02.010Z,6.60
2018-03-26T13:51:02.003Z,5.60
2018-03-26T13:52:02.011Z,7.70
2018-03-26T13:53:02.018Z,7.20
2018-03-26T13:54:02.028Z,7.10
2018-03-26T13:55:02.034Z,7.40
2018-03-26T13:56:02.040Z,7.20
2018-03-26T13:57:02.047Z,7.50
2018-03-26T13:58:02.057Z,6.10
2018-03-26T13:59:02.060Z,6.60
2018-03-26T14:00:02.067Z,6.40
2018-03-26T14:01:02.074Z,6.50
2018-03-26T14:02:02.085Z,6.50
2018-03-26T14:03:02.086Z,6.20
2018-03-26T14:04:02.093Z,6.10
2018-03-26T14:05:02.102Z,6.20
2018-03-26T14:06:02.104Z,5.90
2018-03-26T14:07:02.112Z,5.70
2018-03-26T14:08:02.119Z,6.20
2018-03-26T14:09:02.125Z,6.20
2018-03-26T14:10:02.131Z,6.60
2018-03-26T14:11:02.137Z,6.10
2018-03-26T14:12:02.143Z,5.90
2018-03-26T14:13:02.151Z,6.10
2018-03-26T14:14:02.158Z,5.60
2018-03-26T14:15:02.163Z,5.30
2018-03-26T14:16:02.169Z,5.00
2018-03-26T14:17:02.175Z,5.10
2018-03-26T14:18:02.179Z,5.50
2018-03-26T14:19:02.438Z,5.90
2018-03-26T14:20:02.194Z,5.70
2018-03-26T14:21:02.197Z,6.00